Main page
METAR-TAF:

METAR-TAF

Airports :

Guaraní International Airport

Ciudad Del Este, Paraguay

latitude: 25-27-20S, longitude: 054-50-37W, elevation: 257 m

Current weather observation

The report was made 1 hour and 13 minutes ago, at 08:00 UTC
Wind 7 kt from the North/Northeast
Temperature 19°C
Humidity 94%
Pressure 1013 hPa
Visibility 10 km or more
no clouds below 1500 m and no cumulonimbus

METAR: SGES 220800Z 02007KT CAVOK 19/18 Q1013

Time: 05:13 (09:13 UTC)

Forecast

The report was made 4 hours and 53 minutes ago, at 04:20 UTC
Forecast valid from 22 at 06 UTC to 23 at 06 UTC
Wind 8 kt from the East/Northeast
Visibility 10 km or more
no clouds below 1500 m and no cumulonimbus
Temporary
from 22 at 08 UTC to 22 at 11 UTC
Visibility: 6000 m
Becoming
from 22 at 14 UTC to 22 at 16 UTC
Visibility 10 km or more
Broken clouds at a height of 2700 ft

TAF: SGES 220420Z 2206/2306 06008KT CAVOK TX29/2218Z TN19/2209Z TEMPO 2208/2211 6000 NSC BECMG 2214/2216 9999 BKN027

Weather observations and forecasts of more than 4000 airports (METAR and TAF reports).

The available stations are represented by yellow and red dots on the map.

Hover mouse over dot to see the name of the station.

Then click to see weather observations and forecasts.

To change the map : click on the green buttons with a black cross to zoom in, on the green button with a dash to zoom out, or on the green arrows for adjacent maps.


METAR-TAF: